sensor_id;sensor_type;location;lat;lon;timestamp;pressure;altitude;pressure_sealevel;temperature;humidity
69622;BME280;56841;55.964;37.674;2023-02-11T00:02:02;99402.56;;;-1.48;75.71
69622;BME280;56841;55.964;37.674;2023-02-11T00:04:30;99398.41;;;-1.51;76.05
69622;BME280;56841;55.964;37.674;2023-02-11T00:06:56;99404.03;;;-1.44;75.79
69622;BME280;56841;55.964;37.674;2023-02-11T00:09:22;99402.13;;;-1.55;76.09
69622;BME280;56841;55.964;37.674;2023-02-11T00:11:48;99410.25;;;-1.47;75.92
69622;BME280;56841;55.964;37.674;2023-02-11T00:14:13;99408.38;;;-1.45;75.86
69622;BME280;56841;55.964;37.674;2023-02-11T00:16:39;99407.09;;;-1.52;75.98
69622;BME280;56841;55.964;37.674;2023-02-11T00:19:05;99406.47;;;-1.55;76.16
69622;BME280;56841;55.964;37.674;2023-02-11T00:21:31;99408.59;;;-1.62;76.47
69622;BME280;56841;55.964;37.674;2023-02-11T00:23:58;99414.06;;;-1.67;76.42
69622;BME280;56841;55.964;37.674;2023-02-11T00:26:28;99405.94;;;-1.60;76.81
69622;BME280;56841;55.964;37.674;2023-02-11T00:28:54;99406.00;;;-1.62;76.72
69622;BME280;56841;55.964;37.674;2023-02-11T00:31:20;99399.19;;;-1.63;76.61
69622;BME280;56841;55.964;37.674;2023-02-11T00:33:47;99401.84;;;-1.64;76.62
69622;BME280;56841;55.964;37.674;2023-02-11T00:36:13;99401.41;;;-1.71;76.52
69622;BME280;56841;55.964;37.674;2023-02-11T00:38:44;99399.94;;;-1.75;76.83
69622;BME280;56841;55.964;37.674;2023-02-11T00:41:12;99398.38;;;-1.78;76.93
69622;BME280;56841;55.964;37.674;2023-02-11T00:43:38;99402.72;;;-1.78;77.00
69622;BME280;56841;55.964;37.674;2023-02-11T00:46:05;99400.31;;;-1.81;76.89
69622;BME280;56841;55.964;37.674;2023-02-11T00:48:31;99393.47;;;-1.82;76.91
69622;BME280;56841;55.964;37.674;2023-02-11T00:51:00;99403.09;;;-1.84;77.01
69622;BME280;56841;55.964;37.674;2023-02-11T00:53:25;99400.78;;;-1.89;77.00
69622;BME280;56841;55.964;37.674;2023-02-11T00:55:51;99406.25;;;-1.94;77.22
69622;BME280;56841;55.964;37.674;2023-02-11T00:58:17;99421.41;;;-1.87;77.16
69622;BME280;56841;55.964;37.674;2023-02-11T01:00:43;99408.09;;;-1.96;77.27
69622;BME280;56841;55.964;37.674;2023-02-11T01:03:08;99417.91;;;-2.01;77.56
69622;BME280;56841;55.964;37.674;2023-02-11T01:05:34;99415.78;;;-2.08;77.60
69622;BME280;56841;55.964;37.674;2023-02-11T01:08:01;99425.38;;;-2.10;77.54
69622;BME280;56841;55.964;37.674;2023-02-11T01:10:28;99422.88;;;-2.12;77.75
69622;BME280;56841;55.964;37.674;2023-02-11T01:12:54;99427.22;;;-2.12;77.90
69622;BME280;56841;55.964;37.674;2023-02-11T01:15:20;99427.31;;;-2.14;77.51
69622;BME280;56841;55.964;37.674;2023-02-11T01:17:46;99428.31;;;-2.17;77.80
69622;BME280;56841;55.964;37.674;2023-02-11T01:20:14;99427.59;;;-2.19;77.65
69622;BME280;56841;55.964;37.674;2023-02-11T01:22:40;99437.19;;;-2.21;77.75
69622;BME280;56841;55.964;37.674;2023-02-11T01:25:07;99437.31;;;-2.22;77.87
69622;BME280;56841;55.964;37.674;2023-02-11T01:27:35;99442.66;;;-2.25;77.64
69622;BME280;56841;55.964;37.674;2023-02-11T01:30:03;99444.50;;;-2.27;77.70
69622;BME280;56841;55.964;37.674;2023-02-11T01:32:30;99448.06;;;-2.30;77.84
69622;BME280;56841;55.964;37.674;2023-02-11T01:34:55;99447.91;;;-2.27;77.41
69622;BME280;56841;55.964;37.674;2023-02-11T01:37:21;99442.38;;;-2.35;77.79
69622;BME280;56841;55.964;37.674;2023-02-11T01:39:47;99442.53;;;-2.38;78.07
69622;BME280;56841;55.964;37.674;2023-02-11T01:42:21;99449.53;;;-2.40;77.88
69622;BME280;56841;55.964;37.674;2023-02-11T01:44:51;99454.81;;;-2.42;77.89
69622;BME280;56841;55.964;37.674;2023-02-11T01:47:18;99445.47;;;-2.44;77.82
69622;BME280;56841;55.964;37.674;2023-02-11T01:49:50;99441.06;;;-2.42;77.61
69622;BME280;56841;55.964;37.674;2023-02-11T01:52:26;99435.13;;;-2.44;77.53
69622;BME280;56841;55.964;37.674;2023-02-11T01:54:57;99440.41;;;-2.46;77.68
69622;BME280;56841;55.964;37.674;2023-02-11T01:57:46;99443.41;;;-2.53;77.67
69622;BME280;56841;55.964;37.674;2023-02-11T02:00:14;99439.09;;;-2.53;77.42
69622;BME280;56841;55.964;37.674;2023-02-11T02:03:13;99433.06;;;-2.53;77.08
69622;BME280;56841;55.964;37.674;2023-02-11T02:05:50;99444.00;;;-2.48;76.67
69622;BME280;56841;55.964;37.674;2023-02-11T02:10:45;99434.59;;;-2.49;76.17
69622;BME280;56841;55.964;37.674;2023-02-11T02:13:15;99445.09;;;-2.52;76.20
69622;BME280;56841;55.964;37.674;2023-02-11T02:16:05;99440.84;;;-2.53;75.90
69622;BME280;56841;55.964;37.674;2023-02-11T02:32:47;99448.94;;;-2.15;73.72
69622;BME280;56841;55.964;37.674;2023-02-11T02:35:26;99435.91;;;-2.13;73.53
69622;BME280;56841;55.964;37.674;2023-02-11T02:38:17;99437.31;;;-2.08;72.81
69622;BME280;56841;55.964;37.674;2023-02-11T02:40:49;99443.03;;;-2.03;72.50
69622;BME280;56841;55.964;37.674;2023-02-11T02:43:18;99434.44;;;-2.03;72.26
69622;BME280;56841;55.964;37.674;2023-02-11T02:45:45;99440.38;;;-2.01;72.21
69622;BME280;56841;55.964;37.674;2023-02-11T02:48:24;99441.44;;;-2.05;71.93
69622;BME280;56841;55.964;37.674;2023-02-11T02:50:55;99436.38;;;-2.07;72.07
69622;BME280;56841;55.964;37.674;2023-02-11T02:56:43;99438.78;;;-2.18;72.08
69622;BME280;56841;55.964;37.674;2023-02-11T03:02:16;99433.97;;;-2.24;71.93
69622;BME280;56841;55.964;37.674;2023-02-11T03:04:46;99439.41;;;-2.29;72.22
69622;BME280;56841;55.964;37.674;2023-02-11T03:07:41;99433.38;;;-2.29;72.28
69622;BME280;56841;55.964;37.674;2023-02-11T03:10:14;99447.34;;;-2.32;72.66
69622;BME280;56841;55.964;37.674;2023-02-11T03:12:42;99441.72;;;-2.39;72.69
69622;BME280;56841;55.964;37.674;2023-02-11T03:15:10;99440.69;;;-2.36;72.98
69622;BME280;56841;55.964;37.674;2023-02-11T03:17:38;99440.88;;;-2.39;73.03
69622;BME280;56841;55.964;37.674;2023-02-11T03:20:09;99432.09;;;-2.36;72.85
69622;BME280;56841;55.964;37.674;2023-02-11T03:22:40;99450.38;;;-2.40;72.93
69622;BME280;56841;55.964;37.674;2023-02-11T03:25:07;99449.00;;;-2.45;73.14
69622;BME280;56841;55.964;37.674;2023-02-11T03:30:39;99441.41;;;-2.48;73.27
69622;BME280;56841;55.964;37.674;2023-02-11T03:33:27;99437.06;;;-2.48;73.22
69622;BME280;56841;55.964;37.674;2023-02-11T03:35:56;99445.19;;;-2.54;73.44
69622;BME280;56841;55.964;37.674;2023-02-11T03:38:29;99432.34;;;-2.55;73.31
69622;BME280;56841;55.964;37.674;2023-02-11T03:40:58;99436.88;;;-2.59;73.84
69622;BME280;56841;55.964;37.674;2023-02-11T03:44:02;99433.25;;;-2.56;73.62
69622;BME280;56841;55.964;37.674;2023-02-11T03:46:35;99433.34;;;-2.58;73.86
69622;BME280;56841;55.964;37.674;2023-02-11T03:49:05;99431.53;;;-2.56;73.76
69622;BME280;56841;55.964;37.674;2023-02-11T03:51:33;99436.88;;;-2.59;74.42
69622;BME280;56841;55.964;37.674;2023-02-11T03:54:02;99428.09;;;-2.56;74.41
69622;BME280;56841;55.964;37.674;2023-02-11T03:56:34;99436.22;;;-2.63;74.79
69622;BME280;56841;55.964;37.674;2023-02-11T03:59:03;99429.94;;;-2.58;74.79
69622;BME280;56841;55.964;37.674;2023-02-11T04:01:28;99422.84;;;-2.55;74.66
69622;BME280;56841;55.964;37.674;2023-02-11T04:03:54;99432.91;;;-2.50;74.73
69622;BME280;56841;55.964;37.674;2023-02-11T04:06:20;99428.31;;;-2.45;74.44
69622;BME280;56841;55.964;37.674;2023-02-11T04:08:45;99433.66;;;-2.48;74.77
69622;BME280;56841;55.964;37.674;2023-02-11T04:11:11;99426.06;;;-2.51;74.95
69622;BME280;56841;55.964;37.674;2023-02-11T04:13:37;99432.44;;;-2.57;75.22
69622;BME280;56841;55.964;37.674;2023-02-11T04:16:02;99428.19;;;-2.58;75.27
69622;BME280;56841;55.964;37.674;2023-02-11T04:18:30;99435.38;;;-2.63;75.42
69622;BME280;56841;55.964;37.674;2023-02-11T04:20:56;99428.72;;;-2.67;75.71
69622;BME280;56841;55.964;37.674;2023-02-11T04:23:22;99426.97;;;-2.67;75.64
69622;BME280;56841;55.964;37.674;2023-02-11T04:25:48;99428.88;;;-2.70;75.81
69622;BME280;56841;55.964;37.674;2023-02-11T04:28:14;99438.75;;;-2.77;76.30
69622;BME280;56841;55.964;37.674;2023-02-11T04:30:40;99433.16;;;-2.69;75.89
69622;BME280;56841;55.964;37.674;2023-02-11T04:33:05;99439.84;;;-2.81;76.01
69622;BME280;56841;55.964;37.674;2023-02-11T04:35:32;99426.03;;;-2.80;76.06
69622;BME280;56841;55.964;37.674;2023-02-11T04:37:58;99424.09;;;-2.76;75.73
69622;BME280;56841;55.964;37.674;2023-02-11T04:40:24;99423.84;;;-2.88;76.25
69622;BME280;56841;55.964;37.674;2023-02-11T04:42:50;99426.69;;;-2.92;76.41
69622;BME280;56841;55.964;37.674;2023-02-11T04:45:16;99426.22;;;-2.99;76.38
69622;BME280;56841;55.964;37.674;2023-02-11T04:47:42;99423.06;;;-3.04;76.45
69622;BME280;56841;55.964;37.674;2023-02-11T04:50:07;99422.16;;;-3.03;76.48
69622;BME280;56841;55.964;37.674;2023-02-11T04:52:33;99426.16;;;-3.13;76.95
69622;BME280;56841;55.964;37.674;2023-02-11T04:54:59;99430.50;;;-3.14;76.70
69622;BME280;56841;55.964;37.674;2023-02-11T04:57:25;99430.19;;;-3.23;77.47
69622;BME280;56841;55.964;37.674;2023-02-11T04:59:50;99438.09;;;-3.26;76.97
69622;BME280;56841;55.964;37.674;2023-02-11T05:02:16;99444.75;;;-3.22;76.88
69622;BME280;56841;55.964;37.674;2023-02-11T05:04:42;99431.09;;;-3.24;76.96
69622;BME280;56841;55.964;37.674;2023-02-11T05:07:08;99432.94;;;-3.26;77.05
69622;BME280;56841;55.964;37.674;2023-02-11T05:09:33;99435.41;;;-3.25;76.97
69622;BME280;56841;55.964;37.674;2023-02-11T05:11:59;99437.16;;;-3.25;76.86
69622;BME280;56841;55.964;37.674;2023-02-11T05:14:25;99439.19;;;-3.30;77.07
69622;BME280;56841;55.964;37.674;2023-02-11T05:16:50;99434.00;;;-3.30;76.56
69622;BME280;56841;55.964;37.674;2023-02-11T05:19:16;99439.41;;;-3.35;76.58
69622;BME280;56841;55.964;37.674;2023-02-11T05:21:42;99439.50;;;-3.37;76.67
69622;BME280;56841;55.964;37.674;2023-02-11T05:24:08;99441.94;;;-3.34;76.82
69622;BME280;56841;55.964;37.674;2023-02-11T05:26:33;99436.75;;;-3.34;76.51
69622;BME280;56841;55.964;37.674;2023-02-11T05:28:59;99437.09;;;-3.40;76.84
69622;BME280;56841;55.964;37.674;2023-02-11T05:31:25;99432.53;;;-3.35;76.28
69622;BME280;56841;55.964;37.674;2023-02-11T05:33:51;99433.59;;;-3.39;76.13
69622;BME280;56841;55.964;37.674;2023-02-11T05:36:16;99420.50;;;-3.36;76.04
69622;BME280;56841;55.964;37.674;2023-02-11T05:38:42;99430.00;;;-3.36;76.06
69622;BME280;56841;55.964;37.674;2023-02-11T05:41:09;99429.19;;;-3.37;75.79
69622;BME280;56841;55.964;37.674;2023-02-11T05:43:35;99430.34;;;-3.42;76.13
69622;BME280;56841;55.964;37.674;2023-02-11T05:46:02;99432.44;;;-3.33;76.34
69622;BME280;56841;55.964;37.674;2023-02-11T05:48:28;99437.75;;;-3.36;76.34
69622;BME280;56841;55.964;37.674;2023-02-11T05:50:54;99426.50;;;-3.35;76.12
69622;BME280;56841;55.964;37.674;2023-02-11T05:53:19;99429.19;;;-3.37;76.09
69622;BME280;56841;55.964;37.674;2023-02-11T05:55:45;99424.41;;;-3.28;75.99
69622;BME280;56841;55.964;37.674;2023-02-11T05:58:11;99415.00;;;-3.29;76.16
69622;BME280;56841;55.964;37.674;2023-02-11T06:00:36;99428.03;;;-3.31;76.10
69622;BME280;56841;55.964;37.674;2023-02-11T06:03:02;99422.75;;;-3.29;76.08
69622;BME280;56841;55.964;37.674;2023-02-11T06:05:29;99414.59;;;-3.22;76.15
69622;BME280;56841;55.964;37.674;2023-02-11T06:07:54;99423.59;;;-3.29;76.47
69622;BME280;56841;55.964;37.674;2023-02-11T06:10:21;99413.03;;;-3.24;76.27
69622;BME280;56841;55.964;37.674;2023-02-11T06:12:46;99417.53;;;-3.28;76.42
69622;BME280;56841;55.964;37.674;2023-02-11T06:15:12;99418.09;;;-3.23;75.97
69622;BME280;56841;55.964;37.674;2023-02-11T06:17:38;99414.59;;;-3.22;75.67
69622;BME280;56841;55.964;37.674;2023-02-11T06:20:06;99423.09;;;-3.20;76.20
69622;BME280;56841;55.964;37.674;2023-02-11T06:22:32;99422.00;;;-3.16;75.84
69622;BME280;56841;55.964;37.674;2023-02-11T06:24:57;99421.34;;;-3.19;75.53
69622;BME280;56841;55.964;37.674;2023-02-11T06:27:23;99418.69;;;-3.18;75.43
69622;BME280;56841;55.964;37.674;2023-02-11T06:29:50;99425.06;;;-3.09;75.58
69622;BME280;56841;55.964;37.674;2023-02-11T06:32:17;99422.31;;;-3.06;75.45
69622;BME280;56841;55.964;37.674;2023-02-11T06:34:43;99420.22;;;-2.99;75.09
69622;BME280;56841;55.964;37.674;2023-02-11T06:37:10;99416.56;;;-2.81;74.85
69622;BME280;56841;55.964;37.674;2023-02-11T06:39:35;99415.88;;;-2.69;74.48
69622;BME280;56841;55.964;37.674;2023-02-11T06:42:02;99422.34;;;-2.76;74.03
69622;BME280;56841;55.964;37.674;2023-02-11T06:44:27;99426.75;;;-2.78;74.09
69622;BME280;56841;55.964;37.674;2023-02-11T06:46:53;99427.34;;;-2.89;74.24
69622;BME280;56841;55.964;37.674;2023-02-11T06:49:19;99427.03;;;-2.82;74.17
69622;BME280;56841;55.964;37.674;2023-02-11T06:51:44;99429.59;;;-2.82;74.26
69622;BME280;56841;55.964;37.674;2023-02-11T06:54:11;99428.19;;;-2.88;74.13
69622;BME280;56841;55.964;37.674;2023-02-11T06:56:40;99436.75;;;-2.88;74.31
69622;BME280;56841;55.964;37.674;2023-02-11T06:59:06;99435.88;;;-2.87;74.12
69622;BME280;56841;55.964;37.674;2023-02-11T07:01:31;99437.63;;;-2.87;74.30
69622;BME280;56841;55.964;37.674;2023-02-11T07:03:57;99442.91;;;-2.74;74.22
69622;BME280;56841;55.964;37.674;2023-02-11T07:06:25;99436.94;;;-2.60;73.85
69622;BME280;56841;55.964;37.674;2023-02-11T07:08:53;99433.56;;;-2.47;73.45
69622;BME280;56841;55.964;37.674;2023-02-11T07:11:22;99431.72;;;-2.45;73.36
69622;BME280;56841;55.964;37.674;2023-02-11T07:13:52;99431.91;;;-2.48;73.13
69622;BME280;56841;55.964;37.674;2023-02-11T07:16:19;99420.44;;;-2.44;73.00
69622;BME280;56841;55.964;37.674;2023-02-11T07:18:46;99408.72;;;-2.49;73.03
69622;BME280;56841;55.964;37.674;2023-02-11T07:21:15;99419.78;;;-2.62;73.24
69622;BME280;56841;55.964;37.674;2023-02-11T07:23:41;99423.47;;;-2.66;73.39
69622;BME280;56841;55.964;37.674;2023-02-11T07:26:10;99419.50;;;-2.57;73.52
69622;BME280;56841;55.964;37.674;2023-02-11T07:28:37;99422.09;;;-2.57;73.54
69622;BME280;56841;55.964;37.674;2023-02-11T07:31:09;99405.75;;;-2.57;73.66
69622;BME280;56841;55.964;37.674;2023-02-11T07:33:35;99402.97;;;-2.54;73.92
69622;BME280;56841;55.964;37.674;2023-02-11T07:36:02;99412.84;;;-2.61;74.09
69622;BME280;56841;55.964;37.674;2023-02-11T07:38:29;99403.56;;;-2.49;74.07
69622;BME280;56841;55.964;37.674;2023-02-11T07:41:02;99390.06;;;-2.54;73.91
69622;BME280;56841;55.964;37.674;2023-02-11T07:43:28;99394.78;;;-2.47;73.61
69622;BME280;56841;55.964;37.674;2023-02-11T07:45:55;99385.00;;;-2.42;73.64
69622;BME280;56841;55.964;37.674;2023-02-11T07:48:21;99386.13;;;-2.46;73.64
69622;BME280;56841;55.964;37.674;2023-02-11T07:50:47;99385.28;;;-2.32;73.16
69622;BME280;56841;55.964;37.674;2023-02-11T07:53:12;99391.00;;;-2.27;73.20
69622;BME280;56841;55.964;37.674;2023-02-11T07:55:38;99384.47;;;-2.32;73.07
69622;BME280;56841;55.964;37.674;2023-02-11T07:58:04;99386.66;;;-2.26;73.23
69622;BME280;56841;55.964;37.674;2023-02-11T08:00:29;99390.19;;;-2.27;73.50
69622;BME280;56841;55.964;37.674;2023-02-11T08:02:56;99383.00;;;-2.22;73.60
69622;BME280;56841;55.964;37.674;2023-02-11T08:05:22;99375.59;;;-2.14;73.32
69622;BME280;56841;55.964;37.674;2023-02-11T08:07:51;99375.94;;;-2.06;72.85
69622;BME280;56841;55.964;37.674;2023-02-11T08:10:18;99367.06;;;-2.02;72.82
69622;BME280;56841;55.964;37.674;2023-02-11T08:12:43;99365.84;;;-1.82;72.46
69622;BME280;56841;55.964;37.674;2023-02-11T08:15:09;99358.03;;;-1.68;71.94
69622;BME280;56841;55.964;37.674;2023-02-11T08:17:35;99365.84;;;-1.82;71.90
69622;BME280;56841;55.964;37.674;2023-02-11T08:20:03;99361.06;;;-1.88;71.81
69622;BME280;56841;55.964;37.674;2023-02-11T08:22:33;99362.78;;;-1.88;71.35
69622;BME280;56841;55.964;37.674;2023-02-11T08:25:00;99358.50;;;-1.75;71.41
69622;BME280;56841;55.964;37.674;2023-02-11T08:27:26;99360.91;;;-1.72;71.53
69622;BME280;56841;55.964;37.674;2023-02-11T08:29:52;99365.16;;;-1.71;71.03
69622;BME280;56841;55.964;37.674;2023-02-11T08:32:18;99356.31;;;-1.67;70.51
69622;BME280;56841;55.964;37.674;2023-02-11T08:34:45;99343.69;;;-1.59;70.32
69622;BME280;56841;55.964;37.674;2023-02-11T08:37:10;99345.94;;;-1.67;70.22
69622;BME280;56841;55.964;37.674;2023-02-11T08:39:36;99351.50;;;-1.73;69.70
69622;BME280;56841;55.964;37.674;2023-02-11T08:42:02;99347.97;;;-1.72;70.34
69622;BME280;56841;55.964;37.674;2023-02-11T08:44:28;99347.47;;;-1.64;70.42
69622;BME280;56841;55.964;37.674;2023-02-11T08:46:54;99327.78;;;-1.53;70.21
69622;BME280;56841;55.964;37.674;2023-02-11T08:49:20;99320.00;;;-1.53;69.72
69622;BME280;56841;55.964;37.674;2023-02-11T08:51:47;99315.50;;;-1.63;69.57
69622;BME280;56841;55.964;37.674;2023-02-11T08:54:14;99322.59;;;-1.53;69.52
69622;BME280;56841;55.964;37.674;2023-02-11T08:56:41;99310.97;;;-1.60;69.42
69622;BME280;56841;55.964;37.674;2023-02-11T08:59:07;99310.78;;;-1.57;69.12
69622;BME280;56841;55.964;37.674;2023-02-11T09:01:33;99293.13;;;-1.64;69.07
69622;BME280;56841;55.964;37.674;2023-02-11T09:03:59;99294.09;;;-1.80;69.30
69622;BME280;56841;55.964;37.674;2023-02-11T09:06:26;99281.47;;;-1.84;69.65
69622;BME280;56841;55.964;37.674;2023-02-11T09:08:54;99270.63;;;-1.77;70.21
69622;BME280;56841;55.964;37.674;2023-02-11T09:11:26;99269.09;;;-1.67;69.41
69622;BME280;56841;55.964;37.674;2023-02-11T09:13:52;99260.09;;;-1.61;69.65
69622;BME280;56841;55.964;37.674;2023-02-11T09:16:19;99229.84;;;-1.73;69.47
69622;BME280;56841;55.964;37.674;2023-02-11T09:18:45;99260.31;;;-1.64;70.14
69622;BME280;56841;55.964;37.674;2023-02-11T09:21:12;99251.25;;;-1.71;70.31
69622;BME280;56841;55.964;37.674;2023-02-11T09:23:38;99245.88;;;-1.68;69.97
69622;BME280;56841;55.964;37.674;2023-02-11T09:26:07;99240.31;;;-1.62;70.16
69622;BME280;56841;55.964;37.674;2023-02-11T09:28:33;99235.97;;;-1.61;69.63
69622;BME280;56841;55.964;37.674;2023-02-11T09:31:03;99223.53;;;-1.69;69.91
69622;BME280;56841;55.964;37.674;2023-02-11T09:33:29;99221.88;;;-1.70;70.03
69622;BME280;56841;55.964;37.674;2023-02-11T09:35:55;99223.66;;;-1.58;69.66
69622;BME280;56841;55.964;37.674;2023-02-11T09:38:20;99215.50;;;-1.39;69.31
69622;BME280;56841;55.964;37.674;2023-02-11T09:40:46;99213.72;;;-1.64;69.81
69622;BME280;56841;55.964;37.674;2023-02-11T09:43:19;99217.59;;;-1.84;70.81
69622;BME280;56841;55.964;37.674;2023-02-11T09:45:48;99212.75;;;-1.76;70.80
69622;BME280;56841;55.964;37.674;2023-02-11T09:48:20;99209.00;;;-1.84;71.50
69622;BME280;56841;55.964;37.674;2023-02-11T09:50:57;99212.03;;;-1.78;71.16
69622;BME280;56841;55.964;37.674;2023-02-11T09:53:31;99209.09;;;-1.86;71.43
69622;BME280;56841;55.964;37.674;2023-02-11T09:56:03;99211.09;;;-1.77;71.57
69622;BME280;56841;55.964;37.674;2023-02-11T09:58:37;99210.91;;;-1.74;71.48
69622;BME280;56841;55.964;37.674;2023-02-11T10:04:01;99194.66;;;-1.63;71.57
69622;BME280;56841;55.964;37.674;2023-02-11T10:06:44;99195.78;;;-1.54;71.23
69622;BME280;56841;55.964;37.674;2023-02-11T10:22:54;99169.09;;;-1.42;71.34
69622;BME280;56841;55.964;37.674;2023-02-11T10:25:35;99152.53;;;-1.39;71.71
69622;BME280;56841;55.964;37.674;2023-02-11T10:28:12;99148.38;;;-1.55;72.14
69622;BME280;56841;55.964;37.674;2023-02-11T10:30:44;99152.50;;;-1.65;72.70
69622;BME280;56841;55.964;37.674;2023-02-11T10:33:35;99149.78;;;-1.76;73.24
69622;BME280;56841;55.964;37.674;2023-02-11T10:36:03;99131.88;;;-1.79;73.35
69622;BME280;56841;55.964;37.674;2023-02-11T10:38:29;99146.78;;;-1.83;73.29
69622;BME280;56841;55.964;37.674;2023-02-11T10:40:55;99133.34;;;-1.88;73.86
69622;BME280;56841;55.964;37.674;2023-02-11T10:43:25;99128.28;;;-1.77;74.22
69622;BME280;56841;55.964;37.674;2023-02-11T10:45:54;99116.91;;;-1.74;73.81
69622;BME280;56841;55.964;37.674;2023-02-11T10:51:14;99105.69;;;-1.87;73.66
69622;BME280;56841;55.964;37.674;2023-02-11T10:53:40;99100.72;;;-1.91;74.11
69622;BME280;56841;55.964;37.674;2023-02-11T10:56:10;99082.91;;;-1.82;74.09
69622;BME280;56841;55.964;37.674;2023-02-11T10:58:43;99101.13;;;-1.71;73.64
69622;BME280;56841;55.964;37.674;2023-02-11T11:01:10;99080.41;;;-1.71;73.52
69622;BME280;56841;55.964;37.674;2023-02-11T11:03:49;99090.78;;;-1.71;73.35
69622;BME280;56841;55.964;37.674;2023-02-11T11:06:15;99097.63;;;-1.57;73.34
69622;BME280;56841;55.964;37.674;2023-02-11T11:08:52;99091.59;;;-1.58;72.63
69622;BME280;56841;55.964;37.674;2023-02-11T11:11:20;99079.69;;;-1.48;72.70
69622;BME280;56841;55.964;37.674;2023-02-11T11:16:22;99076.00;;;-1.44;72.47
69622;BME280;56841;55.964;37.674;2023-02-11T11:18:52;99059.16;;;-1.25;72.32
69622;BME280;56841;55.964;37.674;2023-02-11T11:21:24;99057.00;;;-1.31;72.06
69622;BME280;56841;55.964;37.674;2023-02-11T11:23:59;99049.22;;;-1.18;71.73
69622;BME280;56841;55.964;37.674;2023-02-11T11:26:47;99043.69;;;-1.14;71.74
69622;BME280;56841;55.964;37.674;2023-02-11T11:29:29;99024.97;;;-1.30;71.56
69622;BME280;56841;55.964;37.674;2023-02-11T11:31:59;99017.78;;;-1.14;71.13
69622;BME280;56841;55.964;37.674;2023-02-11T11:34:31;99013.41;;;-1.01;70.96
69622;BME280;56841;55.964;37.674;2023-02-11T11:36:59;98989.63;;;-1.18;70.54
69622;BME280;56841;55.964;37.674;2023-02-11T11:39:29;99000.13;;;-1.33;70.55
69622;BME280;56841;55.964;37.674;2023-02-11T11:41:58;98994.66;;;-1.41;71.36
69622;BME280;56841;55.964;37.674;2023-02-11T11:44:31;98989.66;;;-1.31;71.40
69622;BME280;56841;55.964;37.674;2023-02-11T11:47:28;98996.28;;;-1.27;71.00
69622;BME280;56841;55.964;37.674;2023-02-11T11:55:43;98965.53;;;-1.08;70.45
69622;BME280;56841;55.964;37.674;2023-02-11T11:58:19;98963.69;;;-1.06;70.26
69622;BME280;56841;55.964;37.674;2023-02-11T12:09:03;98948.44;;;-1.10;70.35
69622;BME280;56841;55.964;37.674;2023-02-11T12:15:07;98925.19;;;-1.23;69.98
69622;BME280;56841;55.964;37.674;2023-02-11T12:28:47;98901.66;;;-1.20;69.25
69622;BME280;56841;55.964;37.674;2023-02-11T12:34:31;98898.06;;;-1.30;68.57
69622;BME280;56841;55.964;37.674;2023-02-11T12:43:01;98889.97;;;-1.50;68.75
69622;BME280;56841;55.964;37.674;2023-02-11T12:59:12;98858.78;;;-1.48;69.17
69622;BME280;56841;55.964;37.674;2023-02-11T13:01:42;98855.25;;;-1.47;69.25
69622;BME280;56841;55.964;37.674;2023-02-11T13:04:16;98859.50;;;-1.46;69.23
69622;BME280;56841;55.964;37.674;2023-02-11T13:06:51;98833.69;;;-1.24;69.07
69622;BME280;56841;55.964;37.674;2023-02-11T13:09:31;98844.44;;;-1.41;68.98
69622;BME280;56841;55.964;37.674;2023-02-11T13:12:02;98836.81;;;-1.42;69.19
69622;BME280;56841;55.964;37.674;2023-02-11T13:14:48;98824.56;;;-1.64;69.68
69622;BME280;56841;55.964;37.674;2023-02-11T13:17:23;98826.84;;;-1.60;69.73
69622;BME280;56841;55.964;37.674;2023-02-11T13:20:11;98811.91;;;-1.56;69.92
69622;BME280;56841;55.964;37.674;2023-02-11T13:22:47;98810.88;;;-1.54;69.96
69622;BME280;56841;55.964;37.674;2023-02-11T13:25:21;98804.59;;;-1.62;70.28
69622;BME280;56841;55.964;37.674;2023-02-11T13:31:11;98782.94;;;-1.61;70.24
69622;BME280;56841;55.964;37.674;2023-02-11T13:33:42;98775.66;;;-1.56;70.72
69622;BME280;56841;55.964;37.674;2023-02-11T13:36:09;98773.47;;;-1.74;71.55
69622;BME280;56841;55.964;37.674;2023-02-11T13:38:37;98769.72;;;-1.70;71.96
69622;BME280;56841;55.964;37.674;2023-02-11T13:41:09;98754.44;;;-1.61;71.73
69622;BME280;56841;55.964;37.674;2023-02-11T13:43:40;98754.44;;;-1.61;72.39
69622;BME280;56841;55.964;37.674;2023-02-11T13:46:07;98745.78;;;-1.60;73.90
69622;BME280;56841;55.964;37.674;2023-02-11T13:48:37;98740.47;;;-1.59;74.98
69622;BME280;56841;55.964;37.674;2023-02-11T13:51:08;98732.59;;;-1.81;76.32
69622;BME280;56841;55.964;37.674;2023-02-11T13:53:46;98725.06;;;-1.60;77.44
69622;BME280;56841;55.964;37.674;2023-02-11T13:56:23;98710.28;;;-1.71;77.38
69622;BME280;56841;55.964;37.674;2023-02-11T13:58:52;98707.22;;;-1.76;78.75
69622;BME280;56841;55.964;37.674;2023-02-11T14:04:23;98683.84;;;-1.99;81.15
69622;BME280;56841;55.964;37.674;2023-02-11T14:07:27;98682.63;;;-2.06;82.57
69622;BME280;56841;55.964;37.674;2023-02-11T14:13:29;98659.84;;;-2.01;83.08
69622;BME280;56841;55.964;37.674;2023-02-11T14:16:22;98659.78;;;-2.12;84.14
69622;BME280;56841;55.964;37.674;2023-02-11T14:26:55;98625.94;;;-2.09;86.59
69622;BME280;56841;55.964;37.674;2023-02-11T14:29:31;98615.94;;;-2.13;86.88
69622;BME280;56841;55.964;37.674;2023-02-11T14:32:07;98610.06;;;-2.16;87.76
69622;BME280;56841;55.964;37.674;2023-02-11T14:34:57;98600.66;;;-2.17;88.76
69622;BME280;56841;55.964;37.674;2023-02-11T14:42:43;98574.22;;;-2.09;89.89
69622;BME280;56841;55.964;37.674;2023-02-11T14:45:15;98575.06;;;-2.08;90.55
69622;BME280;56841;55.964;37.674;2023-02-11T14:48:03;98571.34;;;-2.28;90.63
69622;BME280;56841;55.964;37.674;2023-02-11T14:50:40;98562.06;;;-2.20;91.16
69622;BME280;56841;55.964;37.674;2023-02-11T14:53:13;98552.09;;;-2.13;90.93
69622;BME280;56841;55.964;37.674;2023-02-11T14:55:42;98554.91;;;-2.16;91.30
69622;BME280;56841;55.964;37.674;2023-02-11T14:58:22;98548.94;;;-2.17;91.21
69622;BME280;56841;55.964;37.674;2023-02-11T15:03:26;98525.66;;;-2.17;90.64
69622;BME280;56841;55.964;37.674;2023-02-11T15:05:59;98535.41;;;-2.09;90.51
69622;BME280;56841;55.964;37.674;2023-02-11T15:08:26;98529.94;;;-1.93;89.77